Culbertson, MT (59218)

1:53 AM MDT on July 23, 2014 (GMT -0600)
MesoWest SOUTHWEST MEDICINE LAKE MT US GGWWFO (MGGWSW) Elev 2092 ft | 48.42 °N, 104.46 °W | Change Station

Current weather conditions updated 50 minutes ago

Partly Cloudy
Partly Cloudy
63 °F
Feels Like 63 °F
N
0
Wind Variable Wind from North
Gusts 0.0 mph

Today is forecast to be Warmer than yesterday. Showers and thunderstorms late tonight.

Today
High -- | Low -- °F
--% Chance of Precip.
Yesterday
High -- | Low -- °F
Precip. -- in
5:22 AM 8:45 PM
Waning Crescent, 12% visible
Pressure 30.25 in
Visibility 10.0 miles
Clouds Clear
Dew Point 61 °F
Humidity 94%
Rainfall -999.00 in
Snow Depth Not available.
UV 0 out of 12
Pollen 6.10 out of 12
Air Quality Not available.
Flu Activity Not available.
METAR KSDY 230735Z AUTO 00000KT 10SM CLR 17/14 A3025 RMK AO1

More Conditions Fewer Conditions

Pressure 30.25 in
Visibility 10.0 miles
Clouds Clear
Dew Point 61 °F
Humidity 94%
Rainfall -999.00 in
Snow Depth Not available.
UV 0 out of 12
Pollen 6.10 out of 12
Air Quality Not available.
Flu Activity Not available.
METAR KSDY 230735Z AUTO 00000KT 10SM CLR 17/14 A3025 RMK AO1

More Conditions Fewer Conditions

10-Day Weather Forecast

Almanac

Astronomy

Jul. 23, 2014 Rise Set
Actual Time 5:22 AM MDT 8:45 PM MDT
Civil Twilight 4:44 AM MDT 9:23 PM MDT
Nautical Twilight 3:53 AM MDT 10:13 PM MDT
Astronomical Twilight 2:47 AM MDT 11:19 PM MDT
Moon 2:45 AM MDT 6:14 PM MDT
Length of Visible Light 16h 39m
Length of Day
15h 23m
Tomorrow will be 2m 22s shorter.
Waning Crescent, 12% of the Moon is Illuminated
Today
Waning Crescent
Jul 26
New
Aug 3
First Quarter
Aug 10
Full
Aug 17
Last Quarter

Today's Extremes

State Highs State Lows

Community

WunderPhotos

Upload Photos

1,736,529 photos uploaded!

Nearby

Snow Depth

Station Depth Elevation
Crystal Lake 0 in 6050 ft
Daisy Peak 0 in 7600 ft
Spur Park 0 in 8100 ft
Cole Creek 0 in 7850 ft
Onion Park 0 in 7410 ft

Earthquake Activity

City Distance Mag. Time & Date
No recent earthquake activity has been reported nearby.
Minimum magnitude displayed is 2.5.

Coastal Water Temperatures

Place Temperature
No Stations Reporting

Nearby Weather Stations

Station Location Temp. Dew Point Humidity Wind Precip. Elev Updated Type
MesoWest SOUTHWEST MEDICINE LAKE , Froid, MT 63 °F 61 °F 94% North  at  0 mph 0.00 in / hr 2092 ft 1:03 AM MDT MADIS
MesoWest SAND CREEK , Froid, MT 64 °F 61 °F 88% North  at  0 mph 0.00 in / hr 2214 ft 1:03 AM MDT MADIS
RAWS MEDICINE LAKE MT, Medicine Lake, MT 65 °F 64 °F 96% East  at  8 mph 0.00 in / hr 1975 ft 12:58 AM MDT MADIS
APRSWXNET Sidney MT , Crane, MT 66 °F 59 °F 77% ESE  at  0 mph 0.00 in / hr 2500 ft 1:08 AM MDT MADIS

Show More Stations Show Fewer Stations